Time;durP1;ratioP1;P1;durP2;ratioP2;P2;SDS_P1;SDS_P2;PMS_P1;PMS_P2;Temp;Humidity;BMP_temperature;BMP_pressure;BME280_temperature;BME280_humidity;BME280_pressure;Samples;Min_cycle;Max_cycle;Signal;HPM_P1;HPM_P2
2023/09/30 00:02:05;;;;;;;14.32;6.45;;;;;;;11.79;100.00;102344.03;4951538;28;20086;-74
2023/09/30 00:04:33;;;;;;;14.65;6.20;;;;;;;11.78;100.00;102337.84;4968421;28;20053;-70
2023/09/30 00:07:00;;;;;;;13.18;5.60;;;;;;;11.78;100.00;102339.63;4968532;28;20046;-69
2023/09/30 00:09:28;;;;;;;13.32;5.40;;;;;;;11.76;100.00;102347.56;4968626;28;20110;-69
2023/09/30 00:11:55;;;;;;;15.48;6.70;;;;;;;11.77;100.00;102361.66;4969869;28;20053;-70
2023/09/30 00:14:23;;;;;;;17.67;6.22;;;;;;;11.73;100.00;102363.47;4969665;28;20031;-73
2023/09/30 00:16:50;;;;;;;15.63;5.97;;;;;;;11.71;100.00;102362.59;4969266;28;20039;-72
2023/09/30 00:19:18;;;;;;;13.55;5.88;;;;;;;11.70;100.00;102357.34;4970415;28;20042;-71
2023/09/30 00:21:45;;;;;;;16.83;6.35;;;;;;;11.68;100.00;102357.34;4969691;28;20051;-72
2023/09/30 00:24:12;;;;;;;13.25;6.10;;;;;;;11.66;100.00;102364.41;4960685;28;20053;-72
2023/09/30 00:26:39;;;;;;;17.55;6.47;;;;;;;11.65;100.00;102370.56;4968965;28;20070;-72
2023/09/30 00:29:06;;;;;;;18.25;6.78;;;;;;;11.65;100.00;102371.47;4964069;28;20930;-73
2023/09/30 00:31:34;;;;;;;21.40;6.85;;;;;;;11.67;100.00;102374.06;4966925;28;20129;-72
2023/09/30 00:34:01;;;;;;;16.40;6.82;;;;;;;11.69;100.00;102382.00;4968751;28;20049;-71
2023/09/30 00:36:28;;;;;;;18.55;6.60;;;;;;;11.69;100.00;102367.00;4969573;28;20043;-72
2023/09/30 00:38:55;;;;;;;14.13;6.28;;;;;;;11.67;100.00;102352.94;4969901;28;20059;-72
2023/09/30 00:41:23;;;;;;;18.67;6.80;;;;;;;11.64;100.00;102363.56;4968690;28;20054;-72
2023/09/30 00:43:50;;;;;;;15.45;6.75;;;;;;;11.66;100.00;102374.97;4975675;28;20039;-73
2023/09/30 00:46:28;;;;;;;16.48;6.43;;;;;;;11.69;100.00;102369.66;4966837;28;20045;-73
2023/09/30 00:48:59;;;;;;;15.98;6.85;;;;;;;11.69;100.00;102368.78;4968077;28;20961;-72
2023/09/30 00:51:28;;;;;;;15.60;6.72;;;;;;;11.68;100.00;102370.53;4968844;28;20050;-73
2023/09/30 00:53:59;;;;;;;17.80;7.15;;;;;;;11.68;100.00;102382.88;4966711;28;20138;-74
2023/09/30 00:56:30;;;;;;;19.40;7.20;;;;;;;11.66;100.00;102390.81;4969677;28;20074;-73
2023/09/30 00:58:59;;;;;;;21.58;8.15;;;;;;;11.68;100.00;102398.75;4974616;28;20050;-73
2023/09/30 01:01:26;;;;;;;16.80;7.40;;;;;;;11.70;100.00;102396.97;4967092;28;20104;-74
2023/09/30 01:03:54;;;;;;;15.80;8.18;;;;;;;11.70;100.00;102389.91;4969792;28;20411;-74
2023/09/30 01:06:22;;;;;;;19.35;7.90;;;;;;;11.73;100.00;102373.13;4969754;28;20051;-72
2023/09/30 01:08:49;;;;;;;17.88;7.65;;;;;;;11.73;100.00;102371.38;4969322;28;20689;-73
2023/09/30 01:11:17;;;;;;;14.68;7.63;;;;;;;11.73;100.00;102376.66;4965908;28;20050;-74
2023/09/30 01:13:44;;;;;;;17.33;7.80;;;;;;;11.70;100.00;102373.19;4966218;28;20875;-74
2023/09/30 01:16:12;;;;;;;13.95;7.28;;;;;;;11.67;100.00;102376.72;4976530;28;20038;-73
2023/09/30 01:18:42;;;;;;;14.85;6.70;;;;;;;11.63;100.00;102388.22;4967830;28;20791;-74
2023/09/30 01:21:10;;;;;;;16.77;7.05;;;;;;;11.57;100.00;102398.81;4966616;28;20047;-73
2023/09/30 01:23:39;;;;;;;18.88;7.90;;;;;;;11.50;100.00;102398.91;4966072;28;20516;-73
2023/09/30 01:26:12;;;;;;;16.67;7.65;;;;;;;11.49;100.00;102401.56;4966608;28;20121;-74
2023/09/30 01:28:40;;;;;;;13.70;7.30;;;;;;;11.47;100.00;102396.28;4987489;28;20043;-73
2023/09/30 01:31:07;;;;;;;15.98;7.40;;;;;;;11.46;100.00;102396.31;4966891;28;20496;-74
2023/09/30 01:33:35;;;;;;;15.40;7.30;;;;;;;11.42;100.00;102398.09;4968681;28;20050;-74
2023/09/30 01:36:03;;;;;;;16.98;7.18;;;;;;;11.36;100.00;102410.47;4965261;28;20126;-76
2023/09/30 01:38:30;;;;;;;17.05;7.63;;;;;;;11.33;100.00;102433.38;4976949;28;20781;-76
2023/09/30 01:40:57;;;;;;;19.98;7.82;;;;;;;11.31;100.00;102435.13;4962420;28;20085;-76
2023/09/30 01:43:28;;;;;;;15.70;8.30;;;;;;;11.29;100.00;102426.34;4963399;28;20038;-76
2023/09/30 01:45:55;;;;;;;18.35;7.65;;;;;;;11.27;100.00;102432.53;4976611;28;20047;-76
2023/09/30 01:48:23;;;;;;;15.95;7.38;;;;;;;11.23;100.00;102426.41;4969364;28;20116;-76
2023/09/30 01:50:50;;;;;;;17.60;7.70;;;;;;;11.21;100.00;102414.13;4968247;28;20038;-76
2023/09/30 01:53:17;;;;;;;14.30;7.35;;;;;;;11.20;100.00;102426.41;4966867;28;20045;-77
2023/09/30 01:55:45;;;;;;;18.08;8.13;;;;;;;11.18;100.00;102425.59;4970939;28;20097;-76
2023/09/30 01:58:12;;;;;;;15.25;7.80;;;;;;;11.15;100.00;102418.53;4947991;28;20133;-75
2023/09/30 02:00:39;;;;;;;16.60;7.95;;;;;;;11.10;100.00;102407.16;4963164;28;20049;-75
2023/09/30 02:03:07;;;;;;;17.38;8.13;;;;;;;11.06;100.00;102405.41;4966774;28;20042;-75
2023/09/30 02:05:36;;;;;;;15.25;7.57;;;;;;;11.00;100.00;102397.56;4965877;28;20043;-76
2023/09/30 02:08:05;;;;;;;16.02;7.72;;;;;;;10.97;100.00;102394.94;4967028;28;20130;-75
2023/09/30 02:10:33;;;;;;;15.93;8.43;;;;;;;10.93;100.00;102393.22;4970531;28;20046;-75
2023/09/30 02:13:01;;;;;;;15.70;8.38;;;;;;;10.89;100.00;102392.34;4952902;28;20126;-76
2023/09/30 02:15:28;;;;;;;12.52;6.90;;;;;;;10.85;100.00;102398.53;4982080;28;20523;-75
2023/09/30 02:17:55;;;;;;;16.38;7.93;;;;;;;10.84;100.00;102407.34;4966576;28;20059;-75
2023/09/30 02:20:25;;;;;;;17.92;8.25;;;;;;;10.80;100.00;102395.03;4965473;28;20042;-76
2023/09/30 02:22:54;;;;;;;18.58;8.60;;;;;;;10.77;100.00;102398.56;4967257;28;20219;-73
2023/09/30 02:25:21;;;;;;;21.95;8.93;;;;;;;10.76;100.00;102407.38;4968534;28;20109;-74
2023/09/30 02:27:50;;;;;;;15.48;8.45;;;;;;;10.75;100.00;102407.41;4968074;28;20070;-74
2023/09/30 02:30:18;;;;;;;16.60;8.07;;;;;;;10.72;100.00;102406.53;4967114;28;20046;-75
2023/09/30 02:32:46;;;;;;;14.68;8.23;;;;;;;10.73;100.00;102415.31;4966575;28;20038;-75
2023/09/30 02:35:15;;;;;;;15.20;8.00;;;;;;;10.72;100.00;102413.56;4966589;28;20075;-75
2023/09/30 02:37:43;;;;;;;15.18;8.63;;;;;;;10.72;100.00;102424.97;4968436;28;20043;-74
2023/09/30 02:40:10;;;;;;;15.80;8.63;;;;;;;10.71;100.00;102425.88;4964467;28;20176;-75
2023/09/30 02:42:39;;;;;;;20.48;9.30;;;;;;;10.75;100.00;102426.72;4967027;28;20093;-74
2023/09/30 02:45:09;;;;;;;15.63;8.40;;;;;;;10.76;100.00;102415.28;4954419;28;20059;-74
2023/09/30 02:47:38;;;;;;;18.15;8.75;;;;;;;10.77;100.00;102411.78;4972485;28;20109;-74
2023/09/30 02:50:13;;;;;;;17.02;9.13;;;;;;;10.79;100.00;102409.09;4971829;28;20054;-75
2023/09/30 02:52:41;;;;;;;15.90;8.68;;;;;;;10.76;100.00;102398.59;4971642;28;20070;-75
2023/09/30 02:55:10;;;;;;;16.15;8.20;;;;;;;10.71;100.00;102391.56;4971151;28;20049;-76
2023/09/30 02:57:39;;;;;;;21.02;8.75;;;;;;;10.72;100.00;102398.59;4971016;28;20039;-76
2023/09/30 03:00:23;;;;;;;14.82;8.45;;;;;;;10.69;100.00;102406.53;4971051;28;20044;-75
2023/09/30 03:02:53;;;;;;;15.15;8.52;;;;;;;10.65;100.00;102399.53;4981192;28;20165;-75
2023/09/30 03:05:21;;;;;;;16.23;8.85;;;;;;;10.63;100.00;102411.84;4979706;28;20400;-75
2023/09/30 03:07:53;;;;;;;18.52;9.10;;;;;;;10.62;100.00;102402.19;4969866;28;20050;-76
2023/09/30 03:10:20;;;;;;;17.63;9.30;;;;;;;10.59;100.00;102389.00;4971075;28;20723;-76
2023/09/30 03:12:48;;;;;;;17.73;9.13;;;;;;;10.57;100.00;102401.34;4972182;28;20046;-75
2023/09/30 03:15:16;;;;;;;16.25;8.80;;;;;;;10.53;100.00;102383.78;4970900;28;20113;-75
2023/09/30 03:17:44;;;;;;;17.45;9.85;;;;;;;10.53;100.00;102391.69;4974152;28;20124;-75
2023/09/30 03:20:19;;;;;;;15.18;9.18;;;;;;;10.55;100.00;102398.69;4970279;28;20051;-75
2023/09/30 03:22:49;;;;;;;18.50;10.32;;;;;;;10.57;100.00;102404.84;4970626;28;20046;-74
2023/09/30 03:25:18;;;;;;;18.23;9.98;;;;;;;10.60;100.00;102411.00;4970975;28;20053;-73
2023/09/30 03:27:46;;;;;;;16.67;10.50;;;;;;;10.62;100.00;102393.41;4972673;28;20067;-74
2023/09/30 03:30:16;;;;;;;20.40;11.70;;;;;;;10.62;100.00;102385.50;4970448;28;20053;-74
2023/09/30 03:32:44;;;;;;;16.73;10.80;;;;;;;10.62;100.00;102390.78;4970209;28;20054;-74
2023/09/30 03:35:14;;;;;;;18.30;11.32;;;;;;;10.64;100.00;102400.41;4972640;28;20065;-74
2023/09/30 03:37:44;;;;;;;19.27;10.90;;;;;;;10.65;100.00;102391.63;4970464;28;20051;-73
2023/09/30 03:40:19;;;;;;;16.67;11.40;;;;;;;10.68;100.00;102414.47;4970671;28;20051;-72
2023/09/30 03:42:51;;;;;;;21.08;11.27;;;;;;;10.70;100.00;102403.00;4971149;28;20038;-73
2023/09/30 03:45:18;;;;;;;19.10;11.10;;;;;;;10.72;100.00;102403.03;4972769;28;20402;-74
2023/09/30 03:47:47;;;;;;;19.38;11.18;;;;;;;10.74;100.00;102395.94;4972183;28;20063;-73
2023/09/30 03:50:15;;;;;;;20.27;11.68;;;;;;;10.75;100.00;102389.78;4969648;28;20053;-73
2023/09/30 03:52:44;;;;;;;18.20;11.13;;;;;;;10.77;100.00;102390.66;4969327;28;20515;-74
2023/09/30 03:55:17;;;;;;;18.60;11.85;;;;;;;10.81;100.00;102402.06;4969618;28;20118;-73
2023/09/30 03:57:49;;;;;;;20.48;11.57;;;;;;;10.83;100.00;102405.59;4977869;28;20499;-71
2023/09/30 04:00:21;;;;;;;17.60;10.98;;;;;;;10.86;100.00;102406.44;4970647;28;20149;-72
2023/09/30 04:02:49;;;;;;;16.92;11.40;;;;;;;10.90;100.00;102407.28;4970090;28;20705;-72
2023/09/30 04:05:18;;;;;;;15.57;10.18;;;;;;;10.90;100.00;102394.09;4970096;28;20042;-72
2023/09/30 04:07:46;;;;;;;22.85;13.05;;;;;;;10.93;100.00;102396.72;4989291;28;20046;-72
2023/09/30 04:10:14;;;;;;;19.67;12.50;;;;;;;10.97;100.00;102394.94;4967891;28;20799;-74
2023/09/30 04:12:41;;;;;;;24.20;13.27;;;;;;;10.98;100.00;102380.84;4970729;28;20226;-74
2023/09/30 04:15:12;;;;;;;25.05;13.77;;;;;;;10.99;100.00;102379.97;4969714;28;20031;-74
2023/09/30 04:17:39;;;;;;;24.70;14.68;;;;;;;10.98;100.00;102376.47;4968862;28;20046;-74
2023/09/30 04:20:10;;;;;;;25.65;14.27;;;;;;;11.01;100.00;102400.16;4970514;28;20093;-74
2023/09/30 04:22:38;;;;;;;23.35;14.40;;;;;;;11.05;100.00;102395.75;4969219;28;20050;-74
2023/09/30 04:25:08;;;;;;;21.58;14.85;;;;;;;11.10;100.00;102401.88;4969575;28;20046;-74
2023/09/30 04:27:36;;;;;;;21.88;14.40;;;;;;;11.14;100.00;102402.72;4969121;28;20046;-74
2023/09/30 04:30:08;;;;;;;22.25;14.98;;;;;;;11.16;100.00;102395.69;4969852;28;20105;-74
2023/09/30 04:32:38;;;;;;;24.73;14.80;;;;;;;11.22;100.00;102395.63;4986270;28;20062;-74
2023/09/30 04:35:08;;;;;;;25.58;15.15;;;;;;;11.27;100.00;102395.56;4968702;28;20204;-75
2023/09/30 04:37:38;;;;;;;27.08;17.70;;;;;;;11.30;100.00;102406.97;4967019;28;20050;-75
2023/09/30 04:40:19;;;;;;;40.00;28.42;;;;;;;11.32;100.00;102399.94;4968717;28;20066;-75
2023/09/30 04:42:46;;;;;;;29.90;23.85;;;;;;;11.36;100.00;102405.19;4966683;28;20053;-75
2023/09/30 04:45:21;;;;;;;28.25;18.25;;;;;;;11.38;100.00;102411.34;4969046;28;20046;-75
2023/09/30 04:47:51;;;;;;;22.20;15.77;;;;;;;11.37;100.00;102407.81;4966540;28;20530;-73
2023/09/30 04:50:21;;;;;;;26.42;16.50;;;;;;;11.36;100.00;102418.41;4968741;28;20150;-73
2023/09/30 04:52:51;;;;;;;26.08;15.07;;;;;;;11.37;100.00;102422.78;4966646;28;20042;-74
2023/09/30 04:55:19;;;;;;;26.90;14.82;;;;;;;11.38;100.00;102430.69;4966540;28;20562;-73
2023/09/30 04:57:47;;;;;;;24.90;14.60;;;;;;;11.39;100.00;102421.88;4966860;28;20039;-73
2023/09/30 05:00:18;;;;;;;29.17;15.25;;;;;;;11.39;100.00;102413.09;4968401;28;20057;-73
2023/09/30 05:02:46;;;;;;;23.05;13.77;;;;;;;11.37;100.00;102413.09;4965478;28;20551;-73
2023/09/30 05:05:14;;;;;;;20.58;14.45;;;;;;;11.37;100.00;102406.94;4968211;28;20797;-73
2023/09/30 05:07:42;;;;;;;27.48;14.70;;;;;;;11.36;100.00;102419.25;4967520;28;20050;-75
2023/09/30 05:10:13;;;;;;;22.60;13.75;;;;;;;11.34;100.00;102427.19;4967032;28;20038;-75
2023/09/30 05:12:45;;;;;;;26.08;14.40;;;;;;;11.33;100.00;102432.50;4968046;28;20046;-75
2023/09/30 05:15:16;;;;;;;19.58;13.63;;;;;;;11.32;100.00;102430.75;4963927;28;20633;-75
2023/09/30 05:17:46;;;;;;;23.48;15.25;;;;;;;11.32;100.00;102439.53;4967331;28;20491;-75
2023/09/30 05:20:19;;;;;;;23.27;15.10;;;;;;;11.32;100.00;102436.91;4966188;28;20428;-73
2023/09/30 05:22:48;;;;;;;22.25;14.98;;;;;;;11.34;100.00;102431.63;4966298;28;20093;-73
2023/09/30 05:25:17;;;;;;;25.63;15.63;;;;;;;11.37;100.00;102431.56;4967891;28;21184;-73
2023/09/30 05:27:49;;;;;;;27.00;17.42;;;;;;;11.38;100.00;102441.25;4965209;28;20126;-73
2023/09/30 05:30:19;;;;;;;24.02;15.57;;;;;;;11.38;100.00;102430.69;4966379;28;20185;-73
2023/09/30 05:32:47;;;;;;;27.85;15.70;;;;;;;11.40;100.00;102442.13;4965825;28;20043;-73
2023/09/30 05:35:16;;;;;;;24.40;15.35;;;;;;;11.40;100.00;102436.84;4965887;28;20043;-74
2023/09/30 05:37:47;;;;;;;27.27;16.33;;;;;;;11.43;100.00;102444.75;4966475;28;20674;-73
2023/09/30 05:40:26;;;;;;;24.10;15.65;;;;;;;11.43;100.00;102443.84;4968387;28;20054;-73
2023/09/30 05:42:58;;;;;;;25.77;15.02;;;;;;;11.43;100.00;102439.47;4965254;28;20130;-75
2023/09/30 05:45:36;;;;;;;27.08;15.95;;;;;;;11.44;100.00;102442.97;4966406;28;20049;-75
2023/09/30 05:48:07;;;;;;;25.55;16.48;;;;;;;11.44;100.00;102442.97;4966022;28;20102;-69
2023/09/30 05:50:36;;;;;;;23.92;14.63;;;;;;;11.44;100.00;102445.59;4968415;28;20499;-69
2023/09/30 05:53:07;;;;;;;23.63;15.05;;;;;;;11.44;100.00;102453.53;4966971;28;20561;-70
2023/09/30 05:55:34;;;;;;;26.65;16.23;;;;;;;11.44;100.00;102451.78;4966351;28;20054;-73
2023/09/30 05:58:01;;;;;;;25.10;15.68;;;;;;;11.46;100.00;102459.69;4964003;28;20043;-74
2023/09/30 06:00:30;;;;;;;24.52;14.95;;;;;;;11.44;100.00;102458.81;4968517;28;20051;-74
2023/09/30 06:02:58;;;;;;;22.75;14.38;;;;;;;11.47;100.00;102466.72;4965213;28;20126;-75
2023/09/30 06:05:29;;;;;;;23.98;15.00;;;;;;;11.46;100.00;102454.41;4968238;28;20536;-75
2023/09/30 06:07:59;;;;;;;24.55;15.48;;;;;;;11.47;100.00;102454.38;4975387;28;20582;-74
2023/09/30 06:10:27;;;;;;;25.38;15.48;;;;;;;11.47;100.00;102456.16;4978557;28;20511;-74
2023/09/30 06:12:54;;;;;;;25.25;15.88;;;;;;;11.45;100.00;102455.28;4966705;28;20046;-74
2023/09/30 06:15:28;;;;;;;22.23;14.90;;;;;;;11.43;100.00;102444.75;4967214;28;20130;-71
2023/09/30 06:17:56;;;;;;;22.73;14.98;;;;;;;11.40;100.00;102443.88;4966566;28;20042;-75
2023/09/30 06:20:26;;;;;;;22.85;15.85;;;;;;;11.36;100.00;102452.72;4969319;28;20072;-74
2023/09/30 06:22:54;;;;;;;22.35;15.80;;;;;;;11.37;100.00;102449.19;4967675;28;20448;-72
2023/09/30 06:25:23;;;;;;;29.27;17.02;;;;;;;11.42;100.00;102452.66;4967827;28;20046;-74
2023/09/30 06:27:51;;;;;;;25.83;16.17;;;;;;;11.46;100.00;102457.91;4967572;28;20042;-73
2023/09/30 06:30:21;;;;;;;28.50;18.08;;;;;;;11.52;100.00;102467.53;4965386;28;20061;-73
2023/09/30 06:32:49;;;;;;;28.10;17.67;;;;;;;11.59;100.00;102458.69;4963348;28;20061;-73
2023/09/30 06:35:17;;;;;;;32.00;17.65;;;;;;;11.64;100.00;102450.72;4965301;28;20094;-73
2023/09/30 06:37:47;;;;;;;25.48;16.63;;;;;;;11.70;100.00;102448.03;4967443;28;20047;-73
2023/09/30 06:40:14;;;;;;;28.52;17.85;;;;;;;11.78;100.00;102447.97;4967132;28;20402;-73
2023/09/30 06:42:42;;;;;;;27.08;17.67;;;;;;;11.83;100.00;102448.78;4967717;28;20050;-73
2023/09/30 06:45:10;;;;;;;25.60;16.15;;;;;;;11.89;100.00;102448.72;4966300;28;20478;-73
2023/09/30 06:47:40;;;;;;;27.52;17.15;;;;;;;11.95;100.00;102442.50;4961917;28;20058;-73
2023/09/30 06:50:12;;;;;;;28.15;17.58;;;;;;;12.01;100.00;102449.50;4967470;28;20046;-73
2023/09/30 06:52:42;;;;;;;26.67;17.55;;;;;;;12.09;100.00;102463.53;4969099;28;20043;-70
2023/09/30 06:55:10;;;;;;;30.73;18.65;;;;;;;12.15;100.00;102457.31;4965927;28;20043;-71
2023/09/30 06:57:39;;;;;;;26.08;17.20;;;;;;;12.25;100.00;102474.81;4964197;28;20073;-73
2023/09/30 07:00:11;;;;;;;28.10;17.38;;;;;;;12.34;100.00;102471.16;4965418;28;20550;-72
2023/09/30 07:02:40;;;;;;;26.25;17.13;;;;;;;12.48;100.00;102473.66;4964859;28;20054;-70
2023/09/30 07:05:13;;;;;;;27.23;17.20;;;;;;;12.65;100.00;102491.97;4964986;28;20035;-74
2023/09/30 07:07:45;;;;;;;24.20;15.50;;;;;;;12.86;100.00;102498.75;4965445;28;20039;-73
2023/09/30 07:10:14;;;;;;;22.70;15.23;;;;;;;13.09;100.00;102495.78;4963637;28;20053;-72
2023/09/30 07:12:42;;;;;;;23.92;16.02;;;;;;;13.34;100.00;102496.28;4965078;28;20054;-73
2023/09/30 07:15:10;;;;;;;19.02;12.77;;;;;;;13.57;100.00;102510.09;4965640;28;20039;-73
2023/09/30 07:17:37;;;;;;;19.85;13.93;;;;;;;13.76;100.00;102513.31;4965858;28;20098;-72
2023/09/30 07:20:06;;;;;;;17.92;11.60;;;;;;;13.89;100.00;102511.31;4966274;28;20560;-73
2023/09/30 07:22:34;;;;;;;21.58;13.05;;;;;;;13.97;100.00;102514.72;4965608;28;20074;-74
2023/09/30 07:25:21;;;;;;;24.58;13.25;;;;;;;14.04;100.00;102512.81;4964359;28;20050;-73
2023/09/30 07:27:48;;;;;;;20.00;11.98;;;;;;;14.13;100.00;102525.91;4965794;28;20046;-73
2023/09/30 07:30:15;;;;;;;21.17;12.70;;;;;;;14.23;100.00;102524.84;4965631;28;20890;-73
2023/09/30 07:32:44;;;;;;;22.55;12.80;;;;;;;14.33;100.00;102524.66;4969912;28;20050;-73
2023/09/30 07:35:15;;;;;;;22.17;12.25;;;;;;;14.43;100.00;102528.88;4968613;28;20049;-72
2023/09/30 07:37:43;;;;;;;20.95;12.52;;;;;;;14.49;100.00;102528.78;4968415;28;20046;-72
2023/09/30 07:40:11;;;;;;;22.00;12.63;;;;;;;14.59;100.00;102540.06;4966862;28;20768;-74
2023/09/30 07:42:39;;;;;;;16.55;11.25;;;;;;;14.75;100.00;102552.16;4967891;28;20039;-75
2023/09/30 07:45:07;;;;;;;18.85;11.55;;;;;;;14.89;100.00;102551.00;4969347;28;20043;-74
2023/09/30 07:47:34;;;;;;;17.70;10.77;;;;;;;14.95;100.00;102553.53;4961971;28;20034;-75
2023/09/30 07:50:06;;;;;;;20.42;10.77;;;;;;;15.08;100.00;102540.84;4987578;28;20125;-75
2023/09/30 07:52:33;;;;;;;18.77;10.88;;;;;;;15.09;100.00;102542.59;4987028;28;20047;-74
2023/09/30 07:55:00;;;;;;;20.30;11.25;;;;;;;15.15;100.00;102553.09;4969071;28;20045;-74
2023/09/30 07:57:27;;;;;;;21.58;10.75;;;;;;;15.21;100.00;102563.56;4970832;28;20039;-74
2023/09/30 07:59:55;;;;;;;17.38;10.70;;;;;;;15.29;100.00;102563.38;4989571;28;20050;-74
2023/09/30 08:02:24;;;;;;;18.30;10.10;;;;;;;15.33;100.00;102556.22;4965200;28;20141;-73
2023/09/30 08:04:51;;;;;;;20.15;10.57;;;;;;;15.43;100.00;102551.56;4964433;28;20575;-74
2023/09/30 08:07:19;;;;;;;19.70;10.88;;;;;;;15.49;100.00;102556.72;4963370;28;20492;-75
2023/09/30 08:09:47;;;;;;;17.60;10.55;;;;;;;15.61;100.00;102553.78;4970390;28;20052;-76
2023/09/30 08:12:15;;;;;;;15.55;9.68;;;;;;;15.73;100.00;102546.44;4971183;28;20047;-74
2023/09/30 08:14:44;;;;;;;17.83;9.80;;;;;;;15.81;100.00;102553.31;4970388;28;20043;-74
2023/09/30 08:17:11;;;;;;;17.80;9.90;;;;;;;15.93;99.60;102545.94;4958613;28;20049;-74
2023/09/30 08:19:39;;;;;;;15.88;8.15;;;;;;;16.14;99.76;102547.19;4981325;28;20429;-75
2023/09/30 08:22:06;;;;;;;18.30;8.60;;;;;;;16.29;98.59;102540.56;4969536;28;20050;-75
2023/09/30 08:24:34;;;;;;;17.42;8.23;;;;;;;16.34;98.12;102543.09;4970763;28;20736;-75
2023/09/30 08:27:01;;;;;;;15.63;8.05;;;;;;;16.35;97.23;102547.50;4970034;28;20134;-74
2023/09/30 08:29:28;;;;;;;18.58;9.00;;;;;;;16.36;97.39;102550.13;4970000;28;20134;-74
2023/09/30 08:31:55;;;;;;;16.95;7.72;;;;;;;16.35;97.48;102545.72;4969166;28;20428;-75
2023/09/30 08:34:24;;;;;;;15.95;7.28;;;;;;;16.39;95.96;102547.38;4969360;28;20495;-75
2023/09/30 08:36:51;;;;;;;18.80;8.15;;;;;;;16.39;95.75;102536.75;4968674;28;20053;-74
2023/09/30 08:39:18;;;;;;;18.63;8.13;;;;;;;16.46;95.23;102535.66;4969495;28;20047;-74
2023/09/30 08:41:45;;;;;;;14.27;7.80;;;;;;;16.52;95.60;102526.63;4969401;28;20180;-75
2023/09/30 08:44:13;;;;;;;19.05;8.05;;;;;;;16.59;95.18;102517.53;4969879;28;20571;-75
2023/09/30 08:46:41;;;;;;;16.95;7.50;;;;;;;16.69;94.18;102530.56;4951607;28;20081;-74
2023/09/30 08:49:11;;;;;;;14.40;7.03;;;;;;;16.77;94.97;102529.44;4980177;28;20038;-75
2023/09/30 08:51:38;;;;;;;14.15;6.88;;;;;;;16.87;94.72;102531.81;4977479;28;20043;-74
2023/09/30 08:54:06;;;;;;;16.00;7.00;;;;;;;16.95;93.72;102529.81;4968642;28;20050;-74
2023/09/30 08:56:35;;;;;;;17.63;7.47;;;;;;;17.00;92.36;102527.91;4969369;28;20043;-75
2023/09/30 08:59:03;;;;;;;18.70;7.05;;;;;;;17.07;92.60;102528.59;4969399;28;20070;-74
2023/09/30 09:01:31;;;;;;;13.68;6.60;;;;;;;17.16;92.53;102525.63;4968829;28;20057;-75
2023/09/30 09:03:58;;;;;;;17.13;7.35;;;;;;;17.23;91.66;102529.00;4977861;28;20511;-74
2023/09/30 09:06:26;;;;;;;17.95;7.40;;;;;;;17.28;90.72;102527.03;4967411;28;20046;-75
2023/09/30 09:08:53;;;;;;;14.98;7.15;;;;;;;17.35;90.92;102523.25;4950139;28;20043;-75
2023/09/30 09:11:23;;;;;;;14.93;6.43;;;;;;;17.43;91.16;102531.00;4964303;28;20097;-73
2023/09/30 09:13:55;;;;;;;14.35;6.00;;;;;;;17.54;91.40;102534.19;4967403;28;20487;-74
2023/09/30 09:16:25;;;;;;;16.17;5.40;;;;;;;17.68;89.97;102532.88;4962425;28;20035;-74
2023/09/30 09:18:53;;;;;;;16.25;5.85;;;;;;;17.73;87.95;102536.22;4964945;28;20043;-74
2023/09/30 09:21:26;;;;;;;12.80;6.53;;;;;;;17.77;87.57;102531.66;4968752;28;20499;-74
2023/09/30 09:23:53;;;;;;;15.32;6.60;;;;;;;17.82;88.20;102533.25;4970035;28;20140;-74
2023/09/30 09:26:34;;;;;;;14.40;6.25;;;;;;;17.91;87.67;102539.19;4969086;28;20057;-74
2023/09/30 09:29:04;;;;;;;12.68;6.95;;;;;;;17.98;88.52;102546.13;4961056;28;20071;-74
2023/09/30 09:31:36;;;;;;;14.52;6.95;;;;;;;18.04;87.47;102545.03;4967432;28;20074;-75
2023/09/30 09:34:14;;;;;;;13.10;7.55;;;;;;;18.08;87.34;102546.66;4968001;28;20039;-75
2023/09/30 09:36:45;;;;;;;14.57;7.47;;;;;;;18.14;86.39;102552.66;4961537;28;20138;-74
2023/09/30 09:39:13;;;;;;;16.70;7.32;;;;;;;18.19;84.30;102555.16;4969464;28;20631;-74
2023/09/30 09:41:56;;;;;;;14.30;7.32;;;;;;;18.31;84.07;102567.22;4967841;28;20050;-74
2023/09/30 09:44:25;;;;;;;14.20;6.72;;;;;;;18.44;82.84;102565.81;4968132;28;20126;-74
2023/09/30 09:46:52;;;;;;;12.43;6.43;;;;;;;18.55;83.81;102567.22;4968703;28;20050;-74
2023/09/30 09:49:21;;;;;;;17.80;6.65;;;;;;;18.65;83.84;102573.13;4968249;28;20043;-74
2023/09/30 09:51:50;;;;;;;12.27;6.60;;;;;;;18.71;83.19;102580.91;4967658;28;20105;-74
2023/09/30 09:54:17;;;;;;;10.55;6.32;;;;;;;18.74;83.01;102583.47;4963800;28;20045;-74
2023/09/30 09:56:45;;;;;;;9.20;5.93;;;;;;;18.76;82.41;102578.94;4967560;28;20125;-76
2023/09/30 09:59:14;;;;;;;10.80;5.80;;;;;;;18.76;82.01;102576.25;4968790;28;20599;-74
2023/09/30 10:01:42;;;;;;;12.38;6.65;;;;;;;18.84;80.61;102583.97;4967010;28;20065;-75
2023/09/30 10:04:15;;;;;;;11.23;6.45;;;;;;;18.92;80.86;102565.88;4967487;28;20058;-75
2023/09/30 10:06:51;;;;;;;10.40;5.60;;;;;;;19.03;80.25;102563.66;4966813;28;20074;-75
2023/09/30 10:09:20;;;;;;;12.25;6.28;;;;;;;19.18;79.84;102567.53;4967914;28;20151;-73
2023/09/30 10:11:48;;;;;;;8.65;4.45;;;;;;;19.18;75.20;102575.56;4969805;28;20050;-75
2023/09/30 10:14:35;;;;;;;8.50;4.82;;;;;;;18.97;74.08;102579.94;4967863;28;20503;-73
2023/09/30 10:17:03;;;;;;;10.65;5.40;;;;;;;18.92;73.50;102584.56;4966758;28;20047;-73
2023/09/30 10:19:32;;;;;;;11.63;5.32;;;;;;;18.65;75.45;102586.47;4974460;28;20047;-73
2023/09/30 10:22:18;;;;;;;10.68;5.80;;;;;;;18.57;75.96;102581.41;4969516;28;20069;-74
2023/09/30 10:24:48;;;;;;;11.93;6.00;;;;;;;18.54;77.26;102578.84;4978169;28;20681;-74
2023/09/30 10:27:21;;;;;;;9.60;5.90;;;;;;;18.70;77.92;102569.34;4963649;28;20053;-74
2023/09/30 10:30:10;;;;;;;12.23;5.65;;;;;;;18.78;78.95;102583.28;4966059;28;20043;-72
2023/09/30 10:32:58;;;;;;;9.13;4.78;;;;;;;18.79;73.92;102576.13;4975555;28;20051;-73
2023/09/30 10:35:32;;;;;;;12.52;5.38;;;;;;;18.74;73.65;102567.44;4960081;28;20035;-72
2023/09/30 10:38:27;;;;;;;10.70;4.77;;;;;;;18.73;75.32;102568.34;4965609;28;20045;-71
2023/09/30 10:40:58;;;;;;;9.20;4.00;;;;;;;18.59;74.90;102563.53;4964853;28;20720;-72
2023/09/30 10:43:30;;;;;;;7.20;4.00;;;;;;;18.45;74.76;102554.22;4967008;28;20406;-72
2023/09/30 10:45:58;;;;;;;8.43;3.85;;;;;;;18.31;75.34;102554.72;4966898;28;20109;-72
2023/09/30 10:48:28;;;;;;;8.32;4.50;;;;;;;18.19;75.46;102552.47;4954929;28;20051;-72
2023/09/30 10:51:00;;;;;;;7.82;4.40;;;;;;;18.16;76.60;102545.47;4964374;28;20055;-72
2023/09/30 10:53:28;;;;;;;7.65;4.35;;;;;;;18.40;77.04;102547.31;4965688;28;20105;-72
2023/09/30 10:56:00;;;;;;;9.75;4.18;;;;;;;18.62;76.39;102550.94;4966429;28;20692;-72
2023/09/30 10:58:48;;;;;;;8.98;4.20;;;;;;;18.87;74.92;102541.97;4967068;28;20129;-73
2023/09/30 11:01:18;;;;;;;9.32;4.07;;;;;;;19.08;74.82;102536.75;4959811;28;20066;-72
2023/09/30 11:03:50;;;;;;;8.68;3.83;;;;;;;19.28;74.78;102537.78;4963625;28;20047;-72
2023/09/30 11:06:21;;;;;;;9.55;3.80;;;;;;;19.44;73.58;102536.22;4964133;28;20771;-73
2023/09/30 11:09:02;;;;;;;10.43;3.35;;;;;;;19.69;71.56;102545.88;4965306;28;20049;-72
2023/09/30 11:11:37;;;;;;;10.40;4.18;;;;;;;19.93;69.98;102540.47;4969242;28;20070;-72
2023/09/30 11:14:30;;;;;;;9.57;3.00;;;;;;;20.16;66.76;102544.81;4964815;28;20045;-73
2023/09/30 11:17:04;;;;;;;7.93;2.40;;;;;;;20.25;64.64;102535.50;4967350;28;20062;-72
2023/09/30 11:19:47;;;;;;;9.20;3.10;;;;;;;20.21;65.64;102534.78;4965935;28;20070;-73
2023/09/30 11:22:15;;;;;;;8.00;3.00;;;;;;;20.25;67.29;102539.03;4966786;28;20047;-74